Main page
METAR-TAF:

METAR-TAF

Airports :

Deputado Luís Eduardo Magalhães International Airport

Salvador, Bahia, Brazil

latitude: 12-54S, longitude: 038-20W, elevation: 6 m

Current weather observation

The report was made 28 minutes ago, at 00:00 UTC
Wind 11 kt from the East/Northeast
Temperature 29°C
Humidity 79%
Pressure 1010 hPa
Visibility 10 km or more
Few clouds at a height of 2000 ft

METAR: SBSV 190000Z 06011KT 9999 FEW020 29/25 Q1010

Time: 21:28 (00:28 UTC)

Forecast

The report was made 8 hours and 28 minutes ago, at 16:00 UTC
Forecast valid from 18 at 18 UTC to 19 at 18 UTC
Wind 10 kt from the East
Visibility 10 km or more
Few clouds at a height of 2000 ft
Becoming
from 19 at 06 UTC to 19 at 08 UTC
Wind 8 kt from the East/Northeast
Scattered clouds at a height of 2000 ft

TAF: SBSV 181600Z 1818/1918 10010KT 9999 FEW020 TN26/1908Z TX32/1914Z BECMG 1906/1908 07008KT SCT020 RMK PEQ

Weather observations and forecasts of more than 4000 airports (METAR and TAF reports).

The available stations are represented by yellow and red dots on the map.

Hover mouse over dot to see the name of the station.

Then click to see weather observations and forecasts.

To change the map : click on the green buttons with a black cross to zoom in, on the green button with a dash to zoom out, or on the green arrows for adjacent maps.


METAR-TAF: